Brookfield, Ohio
Current Conditions -  °F | °C
As of 1:51 AM on Wednesday 22 Oct 2014 (Local Time) from KYNG Reporting Station
Light Rain Light Rain  
Wind Chill: 41°   Ceiling: 600
Heat Index: 46°   Visibility: 4mi
Dew Point: 44°   Wind: 12mph
Humidity: 93%   Direction: 10°N
Pressure: 30.07"   Gusts: NA
Location:  41.23°N, 80.57°W
Report Text: KYNG 220551Z 01010KT 4SM -RA BR BKN006 OVC012 08/07 A3007 RMK AO2 SLP187 P0001 60002 T00780067 10089 20078 51006
Loading
Personal Weather Stations






























Interactive Weather Map
Tropical Storm Tracking
New forecast layout! Learn more

10-Day Weather Forecast

Advertisements
Track Severe Weather on mobile